Time;durP1;ratioP1;P1;durP2;ratioP2;P2;SDS_P1;SDS_P2;PMS_P1;PMS_P2;Temp;Humidity;BMP_temperature;BMP_pressure;BME280_temperature;BME280_humidity;BME280_pressure;Samples;Min_cycle;Max_cycle;Signal;HPM_P1;HPM_P2
2021/10/16 00:01:33;;;;;;;7.33;3.30;;;11.00;99.90;;;;;;5009873;28;20201;-66
2021/10/16 00:04:01;;;;;;;4.40;1.50;;;11.00;99.90;;;;;;5013341;28;20743;-67
2021/10/16 00:06:27;;;;;;;2.90;1.60;;;10.90;99.90;;;;;;5018682;28;21119;-66
2021/10/16 00:08:52;;;;;;;5.93;2.10;;;10.90;99.90;;;;;;5014357;28;20632;-67
2021/10/16 00:11:20;;;;;;;7.20;1.40;;;10.90;99.90;;;;;;5013680;28;20215;-67
2021/10/16 00:13:48;;;;;;;7.47;2.17;;;10.90;99.90;;;;;;5016650;28;20235;-67
2021/10/16 00:16:16;;;;;;;6.40;2.20;;;10.90;99.90;;;;;;5015571;28;20724;-66
2021/10/16 00:18:41;;;;;;;4.97;2.00;;;10.90;99.90;;;;;;5013176;28;20682;-67
2021/10/16 00:21:09;;;;;;;4.30;1.70;;;10.90;99.90;;;;;;5015529;28;20684;-67
2021/10/16 00:23:35;;;;;;;2.30;1.43;;;10.90;99.90;;;;;;5011887;28;20220;-67
2021/10/16 00:26:00;;;;;;;5.87;1.97;;;10.90;99.90;;;;;;5013317;28;20616;-67
2021/10/16 00:28:26;;;;;;;3.60;1.93;;;10.90;99.90;;;;;;5014490;28;20200;-67
2021/10/16 00:30:52;;;;;;;5.30;1.97;;;10.90;99.90;;;;;;5011851;28;20199;-67
2021/10/16 00:33:25;;;;;;;4.83;2.50;;;10.90;99.90;;;;;;5012698;28;20320;-66
2021/10/16 00:35:51;;;;;;;2.97;1.93;;;10.90;99.90;;;;;;5013164;28;20200;-67
2021/10/16 00:38:17;;;;;;;3.60;2.13;;;10.90;99.90;;;;;;5015854;28;20664;-67
2021/10/16 00:40:42;;;;;;;4.17;1.87;;;10.90;99.90;;;;;;5011988;28;20620;-66
2021/10/16 00:43:11;;;;;;;4.73;2.00;;;10.90;99.90;;;;;;5012082;28;20539;-66
2021/10/16 00:45:36;;;;;;;3.97;1.80;;;10.90;99.90;;;;;;5014475;28;20637;-66
2021/10/16 00:48:02;;;;;;;4.67;1.80;;;11.00;99.90;;;;;;5011742;28;20630;-66
2021/10/16 00:50:28;;;;;;;4.90;1.87;;;11.00;99.90;;;;;;5013490;28;20201;-65
2021/10/16 00:52:56;;;;;;;4.67;2.03;;;11.00;99.90;;;;;;5015156;28;20655;-67
2021/10/16 00:55:23;;;;;;;3.53;1.60;;;11.00;99.90;;;;;;5014021;28;20236;-67
2021/10/16 00:57:49;;;;;;;2.73;1.50;;;11.00;99.90;;;;;;5014751;28;20647;-67
2021/10/16 01:00:15;;;;;;;4.40;1.63;;;11.00;99.90;;;;;;5018910;28;20673;-66
2021/10/16 01:02:41;;;;;;;5.67;1.80;;;10.90;99.90;;;;;;5010179;28;20662;-67
2021/10/16 01:05:08;;;;;;;4.97;1.60;;;10.90;99.90;;;;;;5012338;28;20348;-67
2021/10/16 01:07:36;;;;;;;4.83;2.40;;;10.90;99.90;;;;;;5012214;28;20658;-67
2021/10/16 01:10:06;;;;;;;5.67;1.60;;;11.00;99.90;;;;;;5013263;28;20634;-67
2021/10/16 01:12:31;;;;;;;2.87;1.63;;;10.90;99.90;;;;;;5015369;28;21151;-67
2021/10/16 01:15:03;;;;;;;5.17;1.50;;;10.90;99.90;;;;;;5013771;28;20665;-68
2021/10/16 01:17:33;;;;;;;4.43;1.67;;;10.90;99.90;;;;;;5014599;28;20185;-66
2021/10/16 01:20:16;;;;;;;4.50;1.87;;;10.90;99.90;;;;;;5011903;28;20600;-65
2021/10/16 01:22:45;;;;;;;4.97;1.80;;;10.90;99.90;;;;;;5018494;28;21304;-67
2021/10/16 01:25:19;;;;;;;4.93;1.90;;;10.90;99.90;;;;;;5011645;28;20760;-66
2021/10/16 01:27:45;;;;;;;8.97;1.80;;;11.00;99.90;;;;;;5013152;28;21042;-66
2021/10/16 01:30:13;;;;;;;3.07;1.40;;;11.00;99.90;;;;;;5013221;28;20723;-67
2021/10/16 01:32:42;;;;;;;5.60;1.50;;;11.00;99.90;;;;;;5012030;28;20660;-67
2021/10/16 01:35:09;;;;;;;6.73;1.97;;;11.00;99.90;;;;;;5011172;28;21068;-66
2021/10/16 01:37:39;;;;;;;4.27;1.40;;;11.00;99.90;;;;;;5013605;28;20694;-68
2021/10/16 01:40:05;;;;;;;5.93;1.93;;;11.00;99.90;;;;;;5015125;28;20602;-67
2021/10/16 01:42:31;;;;;;;6.40;1.60;;;11.00;99.90;;;;;;5014678;28;20644;-66
2021/10/16 01:44:56;;;;;;;6.90;2.30;;;10.90;99.90;;;;;;5012676;28;20747;-67
2021/10/16 01:47:22;;;;;;;3.83;1.50;;;10.90;99.90;;;;;;5013765;28;20201;-68
2021/10/16 01:49:53;;;;;;;4.83;1.73;;;10.90;99.90;;;;;;5011338;28;20902;-67
2021/10/16 01:52:22;;;;;;;7.53;1.77;;;10.90;99.90;;;;;;5009427;28;20632;-66
2021/10/16 01:54:48;;;;;;;4.73;1.53;;;10.90;99.90;;;;;;5016847;28;21142;-67
2021/10/16 01:57:13;;;;;;;3.40;1.20;;;10.90;99.90;;;;;;5012129;28;20638;-66
2021/10/16 01:59:39;;;;;;;3.10;1.63;;;10.80;99.90;;;;;;5012720;28;20340;-66
2021/10/16 02:02:07;;;;;;;2.60;1.90;;;10.80;99.90;;;;;;5011352;28;20213;-68
2021/10/16 02:04:36;;;;;;;3.57;1.30;;;10.70;99.90;;;;;;5011815;28;20330;-66
2021/10/16 02:07:08;;;;;;;6.13;1.73;;;10.70;99.90;;;;;;5012642;28;20714;-66
2021/10/16 02:09:36;;;;;;;4.20;1.63;;;10.70;99.90;;;;;;5014368;28;20599;-67
2021/10/16 02:12:01;;;;;;;4.37;2.00;;;10.70;99.90;;;;;;5013980;28;21230;-66
2021/10/16 02:14:30;;;;;;;4.07;1.70;;;10.70;99.90;;;;;;5010696;28;20635;-67
2021/10/16 02:16:58;;;;;;;3.37;1.83;;;10.70;99.90;;;;;;5012527;28;20196;-67
2021/10/16 02:19:24;;;;;;;4.97;1.40;;;10.60;99.90;;;;;;5011154;28;20822;-66
2021/10/16 02:21:49;;;;;;;5.40;1.40;;;10.60;99.90;;;;;;5010584;28;20747;-66
2021/10/16 02:24:20;;;;;;;3.23;1.40;;;10.50;99.90;;;;;;5015903;28;20224;-66
2021/10/16 02:26:45;;;;;;;3.37;1.57;;;10.60;99.90;;;;;;5013778;28;20721;-66
2021/10/16 02:29:13;;;;;;;2.03;1.30;;;10.60;99.90;;;;;;5012715;28;20695;-66
2021/10/16 02:31:39;;;;;;;4.77;1.80;;;10.50;99.90;;;;;;5013027;28;20599;-66
2021/10/16 02:34:04;;;;;;;3.30;1.43;;;10.50;99.90;;;;;;5015074;28;20643;-67
2021/10/16 02:36:32;;;;;;;5.50;1.70;;;10.50;99.90;;;;;;5019558;28;20192;-66
2021/10/16 02:38:58;;;;;;;4.97;1.70;;;10.60;99.90;;;;;;5011089;28;20243;-66
2021/10/16 02:41:23;;;;;;;6.37;2.87;;;10.50;99.90;;;;;;5013053;28;20675;-67
2021/10/16 02:43:49;;;;;;;6.00;2.10;;;10.50;99.90;;;;;;5011663;28;20945;-66
2021/10/16 02:46:14;;;;;;;3.07;2.47;;;10.50;99.90;;;;;;5013608;28;20252;-66
2021/10/16 02:48:42;;;;;;;3.53;2.30;;;10.50;99.90;;;;;;5013113;28;20227;-67
2021/10/16 02:51:08;;;;;;;5.90;2.27;;;10.50;99.90;;;;;;5011551;28;20220;-66
2021/10/16 02:53:38;;;;;;;4.97;2.20;;;10.50;99.90;;;;;;5011300;28;20640;-67
2021/10/16 02:56:04;;;;;;;5.10;2.67;;;10.60;99.90;;;;;;5014360;28;20271;-67
2021/10/16 02:58:32;;;;;;;6.07;2.20;;;10.60;99.90;;;;;;5010120;28;20747;-67
2021/10/16 03:00:57;;;;;;;4.37;2.30;;;10.70;99.90;;;;;;5013744;28;20699;-66
2021/10/16 03:03:25;;;;;;;5.00;2.50;;;10.60;99.90;;;;;;5011792;28;20624;-67
2021/10/16 03:05:50;;;;;;;5.40;3.10;;;10.70;99.90;;;;;;5027486;28;20679;-66
2021/10/16 03:08:16;;;;;;;3.03;2.50;;;10.60;99.90;;;;;;5012002;28;20728;-67
2021/10/16 03:10:44;;;;;;;5.77;2.47;;;10.60;99.90;;;;;;5012002;28;20645;-66
2021/10/16 03:13:09;;;;;;;6.70;2.60;;;10.60;99.90;;;;;;5013884;28;20229;-68
2021/10/16 03:15:35;;;;;;;5.87;2.87;;;10.60;99.90;;;;;;5013035;28;21100;-66
2021/10/16 03:18:01;;;;;;;4.83;2.67;;;10.60;99.90;;;;;;5010499;28;20257;-66
2021/10/16 03:20:29;;;;;;;7.27;3.37;;;10.60;99.90;;;;;;5011458;28;20555;-67
2021/10/16 03:22:59;;;;;;;3.77;2.43;;;10.60;99.90;;;;;;5012526;28;20587;-67
2021/10/16 03:25:24;;;;;;;4.17;2.30;;;10.60;99.90;;;;;;5009201;28;20879;-67
2021/10/16 03:27:50;;;;;;;3.20;2.20;;;10.60;99.90;;;;;;5009810;28;21257;-68
2021/10/16 03:30:16;;;;;;;3.00;2.30;;;10.60;99.90;;;;;;5016345;28;20304;-68
2021/10/16 03:32:41;;;;;;;3.87;2.17;;;10.60;99.90;;;;;;5010600;28;20707;-67
2021/10/16 03:35:09;;;;;;;9.20;3.20;;;10.60;99.90;;;;;;5009757;28;20224;-67
2021/10/16 03:37:37;;;;;;;3.57;2.03;;;10.50;99.90;;;;;;5011697;28;20211;-66
2021/10/16 03:40:06;;;;;;;5.47;2.53;;;10.50;99.90;;;;;;5013546;28;20675;-67
2021/10/16 03:42:32;;;;;;;4.60;2.77;;;10.50;99.90;;;;;;5014153;28;20639;-67
2021/10/16 03:44:58;;;;;;;2.93;2.03;;;10.50;99.90;;;;;;5012550;28;21020;-67
2021/10/16 03:47:23;;;;;;;3.83;2.17;;;10.50;99.90;;;;;;5014278;28;20186;-66
2021/10/16 03:49:51;;;;;;;4.33;2.73;;;10.50;99.90;;;;;;5011539;28;20629;-67
2021/10/16 03:52:17;;;;;;;5.27;2.37;;;10.40;99.90;;;;;;5012781;28;20209;-66
2021/10/16 03:54:42;;;;;;;2.47;2.07;;;10.40;99.90;;;;;;5013319;28;20634;-67
2021/10/16 03:57:08;;;;;;;5.73;2.70;;;10.40;99.90;;;;;;5009165;28;20630;-66
2021/10/16 03:59:36;;;;;;;5.03;2.20;;;10.40;99.90;;;;;;5013337;28;20239;-67
2021/10/16 04:02:02;;;;;;;3.77;2.40;;;10.40;99.90;;;;;;5013416;28;20213;-67
2021/10/16 04:04:30;;;;;;;6.10;2.20;;;10.40;99.90;;;;;;5011812;28;20643;-67
2021/10/16 04:06:56;;;;;;;4.17;2.00;;;10.40;99.90;;;;;;5014171;28;20221;-66
2021/10/16 04:09:21;;;;;;;4.10;2.20;;;10.40;99.90;;;;;;5016992;28;20711;-67
2021/10/16 04:11:47;;;;;;;4.83;2.13;;;10.30;99.90;;;;;;5014017;28;20224;-66
2021/10/16 04:14:15;;;;;;;5.67;2.77;;;10.30;99.90;;;;;;5016828;28;20228;-67
2021/10/16 04:16:40;;;;;;;4.33;2.60;;;10.30;99.90;;;;;;5016991;28;20286;-67
2021/10/16 04:19:06;;;;;;;7.03;2.90;;;10.30;99.90;;;;;;5015868;28;21261;-66
2021/10/16 04:21:32;;;;;;;3.80;2.30;;;10.20;99.90;;;;;;5013763;28;20256;-67
2021/10/16 04:24:00;;;;;;;3.83;2.10;;;10.30;99.90;;;;;;5014040;28;20248;-67
2021/10/16 04:26:26;;;;;;;3.90;2.20;;;10.30;99.90;;;;;;5015362;28;20276;-66
2021/10/16 04:28:52;;;;;;;2.33;2.03;;;10.20;99.90;;;;;;5014770;28;20627;-67
2021/10/16 04:31:17;;;;;;;3.30;2.27;;;10.20;99.90;;;;;;5013108;28;20642;-66
2021/10/16 04:33:43;;;;;;;4.27;2.10;;;10.20;99.90;;;;;;5012931;28;20318;-66
2021/10/16 04:36:08;;;;;;;3.30;2.10;;;10.20;99.90;;;;;;5015929;28;20204;-66
2021/10/16 04:38:37;;;;;;;8.97;2.80;;;10.20;99.90;;;;;;5015438;28;20209;-65
2021/10/16 04:41:03;;;;;;;6.43;2.17;;;10.10;99.90;;;;;;5017889;28;20237;-65
2021/10/16 04:43:31;;;;;;;4.77;2.10;;;10.10;99.90;;;;;;5015430;28;20635;-66
2021/10/16 04:45:57;;;;;;;7.00;2.50;;;10.20;99.90;;;;;;5015849;28;20616;-65
2021/10/16 04:48:23;;;;;;;3.70;2.50;;;10.10;99.90;;;;;;5016982;28;20631;-65
2021/10/16 04:50:52;;;;;;;8.70;3.00;;;10.10;99.90;;;;;;5015967;28;20701;-67
2021/10/16 04:53:20;;;;;;;3.03;2.73;;;10.10;99.90;;;;;;5031541;28;20242;-66
2021/10/16 04:55:49;;;;;;;3.20;2.30;;;10.10;99.90;;;;;;5014077;28;20726;-65
2021/10/16 04:58:22;;;;;;;4.53;3.07;;;10.10;99.90;;;;;;5014862;28;20710;-66
2021/10/16 05:00:48;;;;;;;6.53;3.60;;;10.10;99.90;;;;;;5017959;28;20596;-66
2021/10/16 05:03:13;;;;;;;6.60;4.60;;;10.10;99.90;;;;;;5015093;28;20991;-66
2021/10/16 05:05:39;;;;;;;3.60;2.70;;;10.10;99.90;;;;;;5017146;28;20193;-65
2021/10/16 05:08:12;;;;;;;5.00;2.60;;;10.10;99.90;;;;;;5013056;28;20670;-65
2021/10/16 05:10:40;;;;;;;6.23;2.80;;;10.10;99.90;;;;;;5016768;28;20236;-64
2021/10/16 05:13:05;;;;;;;10.17;3.70;;;10.10;99.90;;;;;;5017257;28;20703;-66
2021/10/16 05:15:33;;;;;;;4.80;3.27;;;10.10;99.90;;;;;;5021106;28;20703;-66
2021/10/16 05:18:02;;;;;;;4.57;3.67;;;10.10;99.90;;;;;;5013449;28;20757;-66
2021/10/16 05:20:27;;;;;;;5.30;3.40;;;10.10;99.90;;;;;;5019249;28;20604;-65
2021/10/16 05:22:53;;;;;;;5.90;3.03;;;10.10;99.90;;;;;;5016177;28;20653;-65
2021/10/16 05:25:21;;;;;;;6.30;3.73;;;10.10;99.90;;;;;;5017885;28;20216;-65
2021/10/16 05:27:49;;;;;;;8.30;3.60;;;10.10;99.90;;;;;;5019245;28;20193;-65
2021/10/16 05:30:17;;;;;;;4.83;2.80;;;10.10;99.90;;;;;;5017192;28;20616;-65
2021/10/16 05:32:44;;;;;;;6.30;3.83;;;10.00;99.90;;;;;;5016411;28;20764;-65
2021/10/16 05:35:09;;;;;;;4.00;3.03;;;10.00;99.90;;;;;;5015694;28;20643;-65
2021/10/16 05:37:35;;;;;;;4.40;3.23;;;10.10;99.90;;;;;;5018544;28;20608;-65
2021/10/16 05:40:18;;;;;;;4.87;3.10;;;10.00;99.90;;;;;;5019452;28;20278;-65
2021/10/16 05:42:43;;;;;;;5.67;3.30;;;9.90;99.90;;;;;;5020885;28;20255;-65
2021/10/16 05:45:12;;;;;;;4.40;3.03;;;9.90;99.90;;;;;;5018898;28;20643;-65
2021/10/16 05:47:38;;;;;;;5.30;3.63;;;9.90;99.90;;;;;;5019336;28;20633;-65
2021/10/16 05:50:12;;;;;;;4.43;2.97;;;9.90;99.90;;;;;;5029419;28;20607;-65
2021/10/16 05:52:38;;;;;;;3.70;2.77;;;9.90;99.90;;;;;;5031358;28;20243;-65
2021/10/16 05:55:04;;;;;;;3.10;2.90;;;9.90;99.90;;;;;;5035532;28;21233;-64
2021/10/16 05:57:33;;;;;;;6.93;3.33;;;9.90;99.90;;;;;;5025851;28;20243;-64
2021/10/16 06:00:02;;;;;;;4.83;2.83;;;9.80;99.90;;;;;;5019448;28;20706;-68
2021/10/16 06:02:27;;;;;;;3.03;2.33;;;9.80;99.90;;;;;;5017298;28;20642;-67
2021/10/16 06:04:53;;;;;;;5.10;2.63;;;9.80;99.90;;;;;;5018401;28;20644;-67
2021/10/16 06:07:21;;;;;;;3.30;2.60;;;9.70;99.90;;;;;;5013547;28;20569;-69
2021/10/16 06:09:49;;;;;;;3.10;2.73;;;9.70;99.90;;;;;;5018390;28;20196;-68
2021/10/16 06:12:14;;;;;;;6.10;3.33;;;9.70;99.90;;;;;;5018699;28;20738;-69
2021/10/16 06:14:42;;;;;;;2.83;2.60;;;9.70;99.90;;;;;;5016652;28;21357;-67
2021/10/16 06:17:11;;;;;;;4.93;3.27;;;9.70;99.90;;;;;;5017058;28;20192;-67
2021/10/16 06:19:39;;;;;;;4.30;2.50;;;9.70;99.90;;;;;;5016527;28;21019;-68
2021/10/16 06:22:05;;;;;;;3.13;2.80;;;9.80;99.90;;;;;;5014404;28;20647;-67
2021/10/16 06:24:30;;;;;;;4.47;2.93;;;9.70;99.90;;;;;;5016596;28;20642;-68
2021/10/16 06:26:56;;;;;;;4.60;3.00;;;9.70;99.90;;;;;;5020671;28;20205;-67
2021/10/16 06:29:22;;;;;;;2.93;2.47;;;9.70;99.90;;;;;;5016251;28;20212;-68
2021/10/16 06:31:47;;;;;;;3.07;2.60;;;9.70;99.90;;;;;;5017698;28;20320;-68
2021/10/16 06:34:15;;;;;;;7.07;2.90;;;9.60;99.90;;;;;;5010407;28;20308;-65
2021/10/16 06:36:41;;;;;;;4.20;3.33;;;9.70;99.90;;;;;;5013922;28;20250;-66
2021/10/16 06:39:14;;;;;;;4.47;3.73;;;9.70;99.90;;;;;;5014142;28;20655;-65
2021/10/16 06:41:42;;;;;;;4.03;2.80;;;9.70;99.90;;;;;;5016106;28;20715;-67
2021/10/16 06:44:08;;;;;;;6.27;3.20;;;9.80;99.90;;;;;;5008247;28;20650;-65
2021/10/16 06:46:36;;;;;;;5.50;3.90;;;9.80;99.90;;;;;;5010100;28;20619;-65
2021/10/16 06:49:02;;;;;;;9.37;3.63;;;9.80;99.90;;;;;;5007449;28;20311;-65
2021/10/16 06:51:35;;;;;;;3.67;3.17;;;9.80;99.90;;;;;;5008946;28;21402;-67
2021/10/16 06:54:03;;;;;;;3.93;3.20;;;9.80;99.90;;;;;;5005318;28;20256;-65
2021/10/16 06:56:31;;;;;;;4.47;3.17;;;9.90;99.90;;;;;;5007951;28;20620;-67
2021/10/16 06:58:57;;;;;;;7.63;3.47;;;9.90;99.90;;;;;;5007460;28;20742;-68
2021/10/16 07:01:27;;;;;;;5.97;3.00;;;10.00;99.90;;;;;;5006579;28;22464;-66
2021/10/16 07:03:53;;;;;;;4.13;3.03;;;10.00;99.90;;;;;;5009094;28;20240;-69
2021/10/16 07:06:20;;;;;;;7.23;3.47;;;10.00;99.90;;;;;;5015872;28;21145;-65
2021/10/16 07:08:46;;;;;;;5.80;3.00;;;10.10;99.90;;;;;;5012228;28;20191;-66
2021/10/16 07:11:11;;;;;;;6.70;3.33;;;10.10;99.90;;;;;;5010674;28;20651;-66
2021/10/16 07:13:47;;;;;;;5.43;2.97;;;10.10;99.90;;;;;;5006405;28;20243;-68
2021/10/16 07:16:12;;;;;;;4.37;3.00;;;10.20;99.90;;;;;;5008823;28;20203;-65
2021/10/16 07:18:38;;;;;;;4.47;3.40;;;10.20;99.90;;;;;;5009406;28;21090;-66
2021/10/16 07:21:04;;;;;;;14.23;5.73;;;10.20;99.90;;;;;;4999244;28;20327;-66
2021/10/16 07:23:30;;;;;;;9.13;3.90;;;10.20;99.90;;;;;;5001977;28;20654;-66
2021/10/16 07:25:57;;;;;;;7.10;3.17;;;10.20;99.90;;;;;;5003579;28;21168;-65
2021/10/16 07:28:24;;;;;;;7.77;3.70;;;10.30;99.90;;;;;;5005977;28;20193;-68
2021/10/16 07:30:50;;;;;;;4.60;2.70;;;10.30;99.90;;;;;;5003518;28;20667;-66
2021/10/16 07:33:16;;;;;;;6.43;3.07;;;10.30;99.90;;;;;;5012169;28;20636;-65
2021/10/16 07:35:43;;;;;;;3.83;2.20;;;10.30;99.90;;;;;;5008636;28;20632;-66
2021/10/16 07:38:09;;;;;;;4.00;2.53;;;10.40;99.90;;;;;;5009066;28;20201;-67
2021/10/16 07:40:35;;;;;;;3.77;2.33;;;10.40;99.90;;;;;;5005601;28;20725;-66
2021/10/16 07:43:00;;;;;;;7.97;2.97;;;10.50;99.90;;;;;;5010448;28;21133;-65
2021/10/16 07:45:27;;;;;;;2.73;2.20;;;10.60;99.90;;;;;;5008752;28;21159;-67
2021/10/16 07:47:53;;;;;;;4.83;2.23;;;10.60;99.90;;;;;;5010296;28;20185;-68
2021/10/16 07:50:19;;;;;;;5.20;2.20;;;10.70;99.90;;;;;;5004817;28;20615;-68
2021/10/16 07:52:44;;;;;;;3.77;2.10;;;10.70;99.90;;;;;;5001692;28;20215;-67
2021/10/16 07:55:10;;;;;;;4.50;2.37;;;10.80;99.90;;;;;;5003999;28;20222;-69
2021/10/16 07:57:35;;;;;;;2.10;1.87;;;10.90;99.90;;;;;;5006046;28;20193;-67
2021/10/16 08:00:01;;;;;;;6.77;2.57;;;10.90;99.90;;;;;;5010049;28;20213;-68
2021/10/16 08:02:26;;;;;;;4.17;2.33;;;11.00;99.90;;;;;;5005466;28;20221;-66
2021/10/16 08:04:52;;;;;;;4.93;2.80;;;11.10;99.90;;;;;;5010397;28;20216;-69
2021/10/16 08:07:18;;;;;;;2.93;2.40;;;11.10;99.90;;;;;;5004817;28;20246;-69
2021/10/16 08:09:44;;;;;;;3.50;2.43;;;11.20;99.90;;;;;;5005190;28;20664;-69
2021/10/16 08:12:10;;;;;;;3.90;2.27;;;11.20;99.90;;;;;;5006353;28;20668;-67
2021/10/16 08:14:35;;;;;;;7.43;2.57;;;11.20;99.90;;;;;;5006662;28;20225;-69
2021/10/16 08:17:01;;;;;;;5.10;2.07;;;11.20;99.90;;;;;;5012739;28;20337;-69
2021/10/16 08:19:26;;;;;;;5.10;2.83;;;11.30;99.90;;;;;;5013905;28;20216;-67
2021/10/16 08:21:52;;;;;;;4.33;2.30;;;11.30;99.90;;;;;;5011320;28;20734;-67
2021/10/16 08:24:18;;;;;;;4.27;2.53;;;11.20;99.90;;;;;;5018481;28;20220;-67
2021/10/16 08:26:43;;;;;;;4.30;2.23;;;11.20;99.90;;;;;;5016177;28;20858;-67
2021/10/16 08:29:09;;;;;;;5.50;2.30;;;11.20;99.90;;;;;;5015352;28;20639;-67
2021/10/16 08:31:34;;;;;;;3.53;2.23;;;11.30;99.90;;;;;;5013140;28;20694;-68
2021/10/16 08:34:00;;;;;;;5.27;2.60;;;11.30;99.90;;;;;;5008662;28;20220;-67
2021/10/16 08:36:26;;;;;;;4.50;2.70;;;11.40;99.90;;;;;;5011613;28;20618;-68
2021/10/16 08:38:52;;;;;;;3.43;2.40;;;11.40;99.90;;;;;;5012730;28;20296;-70
2021/10/16 08:41:18;;;;;;;3.87;1.83;;;11.50;99.90;;;;;;5002167;28;20367;-68
2021/10/16 08:43:43;;;;;;;6.50;3.10;;;11.60;99.90;;;;;;5003980;28;20641;-66
2021/10/16 08:46:11;;;;;;;7.57;2.50;;;11.60;99.90;;;;;;5007523;28;20280;-67
2021/10/16 08:48:40;;;;;;;5.77;2.60;;;11.70;99.90;;;;;;5004062;28;20935;-67
2021/10/16 08:51:07;;;;;;;3.67;2.57;;;11.70;99.90;;;;;;5004171;28;21197;-66
2021/10/16 08:53:32;;;;;;;3.50;2.00;;;11.80;99.90;;;;;;5007029;28;20635;-66
2021/10/16 08:56:04;;;;;;;4.23;2.17;;;11.80;99.90;;;;;;5001370;28;20627;-68
2021/10/16 08:58:31;;;;;;;4.37;2.40;;;11.80;99.90;;;;;;5006025;28;20197;-69
2021/10/16 09:00:57;;;;;;;5.87;3.00;;;11.90;99.90;;;;;;5006588;28;21095;-66
2021/10/16 09:03:31;;;;;;;4.23;2.30;;;11.90;99.90;;;;;;5007507;28;20632;-67
2021/10/16 09:06:17;;;;;;;7.17;3.07;;;12.00;99.90;;;;;;5005483;28;20194;-66
2021/10/16 09:08:55;;;;;;;4.40;2.33;;;12.00;99.90;;;;;;5005451;28;20615;-67
2021/10/16 09:11:35;;;;;;;5.57;2.90;;;12.10;99.90;;;;;;5004430;28;20651;-68
2021/10/16 09:14:13;;;;;;;3.40;2.47;;;12.10;99.90;;;;;;5004053;28;20644;-67
2021/10/16 09:16:44;;;;;;;3.33;2.50;;;12.20;99.90;;;;;;5002713;28;20627;-67
2021/10/16 09:19:16;;;;;;;3.83;2.13;;;12.20;99.90;;;;;;5008062;28;20695;-67
2021/10/16 09:21:44;;;;;;;4.97;2.37;;;12.30;99.90;;;;;;5013387;28;20635;-66
2021/10/16 09:24:13;;;;;;;5.40;2.47;;;12.30;99.90;;;;;;5010953;28;20698;-68
2021/10/16 09:26:43;;;;;;;2.67;2.00;;;12.40;99.90;;;;;;5002491;28;20739;-67
2021/10/16 09:29:11;;;;;;;5.70;2.07;;;12.50;99.90;;;;;;5000377;28;21353;-67
2021/10/16 09:31:39;;;;;;;5.93;2.37;;;12.30;99.90;;;;;;5003173;28;20635;-67
2021/10/16 09:34:06;;;;;;;3.50;2.17;;;12.40;99.90;;;;;;5009274;28;20655;-68
2021/10/16 09:36:34;;;;;;;2.43;2.10;;;12.50;99.90;;;;;;4999365;28;20623;-67
2021/10/16 09:39:01;;;;;;;3.17;2.23;;;12.60;99.90;;;;;;5010463;28;20806;-69
2021/10/16 09:41:37;;;;;;;6.27;2.87;;;12.60;99.90;;;;;;5010963;28;21106;-65
2021/10/16 09:44:24;;;;;;;4.07;2.20;;;12.60;99.90;;;;;;5013378;28;21632;-67
2021/10/16 09:47:03;;;;;;;7.83;2.60;;;12.70;99.90;;;;;;5015681;28;20936;-69
2021/10/16 09:49:41;;;;;;;5.30;2.30;;;12.80;99.90;;;;;;5016683;28;20620;-66
2021/10/16 09:52:09;;;;;;;4.10;2.50;;;12.80;99.90;;;;;;5015044;28;20651;-66
2021/10/16 09:54:39;;;;;;;3.90;1.93;;;12.80;99.90;;;;;;5008889;28;20675;-66
2021/10/16 09:57:07;;;;;;;3.47;2.20;;;12.90;99.90;;;;;;5006425;28;20642;-67
2021/10/16 09:59:34;;;;;;;11.33;3.90;;;12.80;99.90;;;;;;5011719;28;21085;-66
2021/10/16 10:02:03;;;;;;;3.53;2.13;;;12.80;99.90;;;;;;5007318;28;20669;-66
2021/10/16 10:04:37;;;;;;;3.40;2.03;;;12.80;99.90;;;;;;5007091;28;21059;-66
2021/10/16 10:07:03;;;;;;;3.97;2.10;;;12.80;99.90;;;;;;5002165;28;20593;-67
2021/10/16 10:09:30;;;;;;;5.00;1.97;;;12.90;99.90;;;;;;5005719;28;20625;-66
2021/10/16 10:11:56;;;;;;;3.70;1.90;;;13.10;99.90;;;;;;5005884;28;21194;-66
2021/10/16 10:14:24;;;;;;;2.73;1.83;;;13.20;99.90;;;;;;5003074;28;20635;-68
2021/10/16 10:16:57;;;;;;;3.73;2.10;;;13.20;99.90;;;;;;5005236;28;20718;-69
2021/10/16 10:19:23;;;;;;;5.37;2.30;;;13.30;99.90;;;;;;5010038;28;21276;-66
2021/10/16 10:21:52;;;;;;;3.87;1.83;;;13.40;99.90;;;;;;5008240;28;20691;-66
2021/10/16 10:24:18;;;;;;;3.03;1.80;;;13.40;99.90;;;;;;4996378;28;20643;-68
2021/10/16 10:26:46;;;;;;;3.60;2.10;;;13.50;99.90;;;;;;5005666;28;20605;-67
2021/10/16 10:29:16;;;;;;;3.83;2.20;;;13.60;99.90;;;;;;5008946;28;20196;-68
2021/10/16 10:31:44;;;;;;;5.27;2.10;;;13.60;99.90;;;;;;5010739;28;21154;-65
2021/10/16 10:34:34;;;;;;;4.37;2.40;;;13.80;99.90;;;;;;5007750;28;20648;-66
2021/10/16 10:37:06;;;;;;;1.90;1.70;;;13.70;99.90;;;;;;5011934;28;20612;-65
2021/10/16 10:39:35;;;;;;;5.80;1.90;;;13.70;99.90;;;;;;5008213;28;20656;-68
2021/10/16 10:42:13;;;;;;;4.27;1.97;;;13.80;99.90;;;;;;5006089;28;20722;-66
2021/10/16 10:44:52;;;;;;;8.10;2.03;;;14.00;99.90;;;;;;5006953;28;20785;-68
2021/10/16 10:47:23;;;;;;;2.80;2.00;;;14.10;99.90;;;;;;5007591;28;20608;-67
2021/10/16 10:49:54;;;;;;;3.50;1.93;;;14.30;99.90;;;;;;5006641;28;21210;-67
2021/10/16 10:52:24;;;;;;;4.40;2.27;;;14.40;99.90;;;;;;5011081;28;20667;-70
2021/10/16 10:54:58;;;;;;;4.20;2.03;;;14.50;99.90;;;;;;5002636;28;20644;-69
2021/10/16 10:57:46;;;;;;;3.40;2.20;;;14.50;99.90;;;;;;5007980;28;21829;-69
2021/10/16 11:00:13;;;;;;;6.17;2.50;;;14.60;99.90;;;;;;5007904;28;20664;-69
2021/10/16 11:02:39;;;;;;;2.40;1.73;;;14.60;99.90;;;;;;5004923;28;21023;-65
2021/10/16 11:05:28;;;;;;;2.87;1.70;;;14.50;99.90;;;;;;5004021;28;20640;-70
2021/10/16 11:08:04;;;;;;;2.30;1.73;;;14.60;99.90;;;;;;5011691;28;23963;-66
2021/10/16 11:10:29;;;;;;;2.50;1.93;;;14.50;99.90;;;;;;5008986;28;20718;-67
2021/10/16 11:12:55;;;;;;;3.90;1.80;;;14.50;99.90;;;;;;5011174;28;20646;-67
2021/10/16 11:15:21;;;;;;;2.70;1.83;;;14.40;99.90;;;;;;5007786;28;20744;-67
2021/10/16 11:17:48;;;;;;;4.20;1.83;;;14.40;99.90;;;;;;5013168;28;20528;-67
2021/10/16 11:20:18;;;;;;;3.20;1.80;;;14.40;99.90;;;;;;5012011;28;20624;-67
2021/10/16 11:22:54;;;;;;;3.23;1.67;;;14.40;99.90;;;;;;5012198;28;20648;-66
2021/10/16 11:25:22;;;;;;;4.73;2.00;;;14.40;99.90;;;;;;5005868;28;21167;-67
2021/10/16 11:28:05;;;;;;;3.57;2.03;;;14.50;99.90;;;;;;5009586;28;20623;-70
2021/10/16 11:30:42;;;;;;;3.03;1.80;;;14.50;99.90;;;;;;4996563;28;20623;-71
2021/10/16 11:33:10;;;;;;;4.37;2.30;;;14.60;99.90;;;;;;5000301;28;20587;-66
2021/10/16 11:35:39;;;;;;;6.70;2.70;;;14.60;99.90;;;;;;5004490;28;20627;-67
2021/10/16 11:38:06;;;;;;;2.30;1.40;;;14.60;99.90;;;;;;5004612;28;20623;-68
2021/10/16 11:40:33;;;;;;;5.03;1.70;;;14.70;99.90;;;;;;5003619;28;21204;-67
2021/10/16 11:43:02;;;;;;;2.30;2.00;;;14.70;99.90;;;;;;5008387;28;20697;-68
2021/10/16 11:45:31;;;;;;;3.80;1.67;;;14.70;99.90;;;;;;5005011;28;21178;-64
2021/10/16 11:47:59;;;;;;;4.43;2.07;;;14.70;99.90;;;;;;5006649;28;20699;-63
2021/10/16 11:50:39;;;;;;;2.90;1.67;;;14.70;99.90;;;;;;5004557;28;21647;-67
2021/10/16 11:53:09;;;;;;;3.40;1.60;;;14.80;99.90;;;;;;5007613;28;20618;-66
2021/10/16 11:55:35;;;;;;;2.70;1.60;;;14.80;99.90;;;;;;5005796;28;21069;-68
2021/10/16 11:58:07;;;;;;;3.40;1.90;;;14.80;99.90;;;;;;4996333;28;20714;-67
2021/10/16 12:00:34;;;;;;;5.17;1.90;;;14.80;99.90;;;;;;5003644;28;20583;-66
2021/10/16 12:03:07;;;;;;;2.53;1.70;;;14.80;99.90;;;;;;5002479;28;20752;-70
2021/10/16 12:05:34;;;;;;;2.83;1.60;;;14.90;99.90;;;;;;5007361;28;20675;-68
2021/10/16 12:08:14;;;;;;;3.33;1.70;;;14.80;99.90;;;;;;5007014;28;21222;-66
2021/10/16 12:10:46;;;;;;;3.00;1.90;;;15.00;99.90;;;;;;5002134;28;22131;-68
2021/10/16 12:13:12;;;;;;;4.53;1.83;;;15.60;99.90;;;;;;5002375;28;20612;-70
2021/10/16 12:15:42;;;;;;;5.87;2.17;;;16.10;99.90;;;;;;5004721;28;20619;-68
2021/10/16 12:18:17;;;;;;;2.60;1.40;;;16.70;99.90;;;;;;5002445;28;20665;-68
2021/10/16 12:20:52;;;;;;;3.43;2.10;;;17.60;99.90;;;;;;5006751;28;20704;-67
2021/10/16 12:23:18;;;;;;;2.93;1.47;;;17.80;99.90;;;;;;5009029;28;20630;-67
2021/10/16 12:25:53;;;;;;;4.97;2.70;;;17.70;99.90;;;;;;5003144;28;20621;-68
2021/10/16 12:28:20;;;;;;;4.23;1.50;;;17.50;99.90;;;;;;5009109;28;20580;-67
2021/10/16 12:31:05;;;;;;;4.03;1.80;;;17.10;99.90;;;;;;5008235;28;20700;-67
2021/10/16 12:33:31;;;;;;;2.60;1.70;;;16.60;99.90;;;;;;5001316;28;21006;-68
2021/10/16 12:35:58;;;;;;;4.00;1.50;;;16.40;99.90;;;;;;5008373;28;20630;-69
2021/10/16 12:38:26;;;;;;;3.50;1.93;;;16.10;99.90;;;;;;5009186;28;20987;-67
2021/10/16 12:40:52;;;;;;;2.70;1.40;;;15.90;99.90;;;;;;5007432;28;20625;-66
2021/10/16 12:43:27;;;;;;;3.27;1.60;;;15.70;99.90;;;;;;5007377;28;21021;-66
2021/10/16 12:45:53;;;;;;;4.17;2.10;;;15.50;99.90;;;;;;5018066;28;20272;-67
2021/10/16 12:48:21;;;;;;;2.20;2.00;;;15.40;99.90;;;;;;5008751;28;20612;-66
2021/10/16 12:50:52;;;;;;;4.13;1.70;;;15.20;99.90;;;;;;5010419;28;20662;-66
2021/10/16 12:53:18;;;;;;;1.90;1.50;;;15.00;99.90;;;;;;5011034;28;20639;-69